Time;durP1;ratioP1;P1;durP2;ratioP2;P2;SDS_P1;SDS_P2;PMS_P1;PMS_P2;Temp;Humidity;BMP_temperature;BMP_pressure;BME280_temperature;BME280_humidity;BME280_pressure;Samples;Min_cycle;Max_cycle;Signal;HPM_P1;HPM_P2
2022/11/21 00:00:53;;;;;;;30.08;20.38;;;1.40;99.90;;;;;;5093436;28;20077;-77
2022/11/21 00:03:19;;;;;;;32.10;20.80;;;1.10;99.90;;;;;;5078201;28;20044;-78
2022/11/21 00:05:47;;;;;;;30.95;20.27;;;1.00;99.90;;;;;;5077084;28;20086;-77
2022/11/21 00:08:15;;;;;;;29.60;20.77;;;1.00;99.90;;;;;;5094303;28;20048;-85
2022/11/21 00:10:41;;;;;;;28.58;20.20;;;1.00;99.90;;;;;;5075504;28;20047;-78
2022/11/21 00:13:14;;;;;;;32.15;21.90;;;1.90;99.90;;;;;;5091747;28;20044;-78
2022/11/21 00:15:39;;;;;;;;;;;1.10;99.90;;;;;;5094148;28;20056;-88
2022/11/21 00:18:05;;;;;;;32.03;20.40;;;1.10;99.90;;;;;;5079520;28;19919;-77
2022/11/21 00:20:31;;;;;;;32.47;21.08;;;1.20;99.90;;;;;;5093320;28;20047;-77
2022/11/21 00:22:57;;;;;;;32.65;21.40;;;1.20;99.90;;;;;;5090056;28;20048;-77
2022/11/21 00:25:23;;;;;;;29.77;21.42;;;1.20;99.90;;;;;;5077465;28;20104;-80
2022/11/21 00:27:48;;;;;;;31.70;21.15;;;1.10;99.90;;;;;;5094190;28;20131;-77
2022/11/21 00:30:14;;;;;;;30.20;20.38;;;1.10;99.90;;;;;;5078588;28;20426;-79
2022/11/21 00:32:40;;;;;;;30.80;21.33;;;1.10;99.90;;;;;;5093645;28;20051;-77
2022/11/21 00:35:06;;;;;;;29.25;21.25;;;1.10;99.90;;;;;;5107543;28;20467;-78
2022/11/21 00:37:32;;;;;;;28.70;20.58;;;1.20;99.90;;;;;;5108558;28;20479;-78
2022/11/21 00:39:58;;;;;;;30.80;21.00;;;1.60;99.90;;;;;;5092408;28;20066;-78
2022/11/21 00:42:24;;;;;;;31.92;21.27;;;1.20;99.90;;;;;;5092799;28;20051;-78
2022/11/21 00:44:49;;;;;;;29.63;21.17;;;1.20;99.90;;;;;;5091217;28;20052;-78
2022/11/21 00:47:15;;;;;;;29.45;20.50;;;1.20;99.90;;;;;;5093085;28;20050;-78
2022/11/21 00:49:41;;;;;;;31.77;21.17;;;1.40;99.90;;;;;;5076758;28;20096;-77
2022/11/21 00:52:07;;;;;;;30.42;21.75;;;1.20;99.90;;;;;;5090909;28;20044;-77
2022/11/21 00:54:32;;;;;;;30.13;20.45;;;1.50;99.90;;;;;;5075647;28;20379;-78
2022/11/21 00:56:58;;;;;;;31.45;21.17;;;1.20;99.90;;;;;;5094310;28;20108;-78
2022/11/21 00:59:24;;;;;;;29.75;21.05;;;1.10;99.90;;;;;;5091621;28;20052;-78
2022/11/21 01:01:49;;;;;;;31.17;21.55;;;1.10;99.90;;;;;;5091124;28;20044;-78
2022/11/21 01:04:15;;;;;;;28.73;20.70;;;1.40;99.90;;;;;;5093372;28;20483;-78
2022/11/21 01:06:41;;;;;;;30.08;19.95;;;1.20;99.90;;;;;;5075188;28;20043;-78
2022/11/21 01:09:06;;;;;;;29.92;20.63;;;1.20;99.90;;;;;;5076068;28;20062;-78
2022/11/21 01:11:32;;;;;;;32.10;21.73;;;1.70;99.90;;;;;;5078105;28;20043;-81
2022/11/21 01:13:58;;;;;;;30.13;19.95;;;1.20;99.90;;;;;;5071152;28;20467;-78
2022/11/21 01:16:26;;;;;;;27.20;18.80;;;1.20;99.90;;;;;;5059632;28;20164;-78
2022/11/21 01:18:51;;;;;;;29.52;20.73;;;1.20;99.90;;;;;;5092410;28;20041;-78
2022/11/21 01:21:26;;;;;;;27.13;20.05;;;1.20;99.90;;;;;;5092448;28;20126;-78
2022/11/21 01:23:53;;;;;;;32.78;21.58;;;1.10;99.90;;;;;;5077818;28;20411;-77
2022/11/21 01:26:22;;;;;;;30.63;21.05;;;1.10;99.90;;;;;;5110078;28;20583;-78
2022/11/21 01:28:48;;;;;;;30.27;21.48;;;1.40;99.90;;;;;;5077683;28;20059;-78
2022/11/21 01:31:19;;;;;;;29.15;21.52;;;1.80;99.90;;;;;;5092543;28;20467;-77
2022/11/21 01:33:45;;;;;;;31.05;21.63;;;1.00;99.90;;;;;;5111754;28;20126;-78
2022/11/21 01:36:18;;;;;;;30.02;21.00;;;1.00;99.90;;;;;;5090301;28;20047;-81
2022/11/21 01:38:49;;;;;;;32.97;21.67;;;1.00;99.90;;;;;;5071605;28;20491;-78
2022/11/21 01:41:21;;;;;;;31.02;21.42;;;0.90;99.90;;;;;;5073020;28;20047;-78
2022/11/21 01:43:47;;;;;;;30.52;21.05;;;1.00;99.90;;;;;;5094792;28;20044;-80
2022/11/21 01:46:14;;;;;;;32.08;21.08;;;0.90;99.90;;;;;;5104464;28;20511;-78
2022/11/21 01:48:58;;;;;;;29.65;21.42;;;0.90;99.90;;;;;;5086288;28;20055;-78
2022/11/21 01:51:54;;;;;;;32.75;21.60;;;0.90;99.90;;;;;;5090180;28;20505;-77
2022/11/21 01:54:41;;;;;;;33.47;21.67;;;0.90;99.90;;;;;;5087649;28;20118;-80
2022/11/21 01:57:33;;;;;;;32.63;21.60;;;0.90;99.90;;;;;;5085380;28;20415;-80
2022/11/21 02:00:09;;;;;;;30.52;21.00;;;0.90;99.90;;;;;;5074665;28;20104;-77
2022/11/21 02:02:38;;;;;;;31.00;21.55;;;0.80;99.90;;;;;;5076165;28;20059;-77
2022/11/21 02:05:08;;;;;;;31.85;21.70;;;0.80;99.90;;;;;;5091055;28;20063;-78
2022/11/21 02:07:36;;;;;;;32.72;22.15;;;0.80;99.90;;;;;;5092277;28;20048;-78
2022/11/21 02:10:03;;;;;;;32.85;21.98;;;0.80;99.90;;;;;;5093072;28;20392;-80
2022/11/21 02:12:39;;;;;;;31.40;21.38;;;0.70;99.90;;;;;;5086105;28;20050;-78
2022/11/21 02:15:06;;;;;;;29.65;20.98;;;0.70;99.90;;;;;;5077197;28;20056;-86
2022/11/21 02:17:32;;;;;;;33.55;21.73;;;0.70;99.90;;;;;;5093693;28;20483;-78
2022/11/21 02:20:09;;;;;;;32.20;22.05;;;0.70;99.90;;;;;;5090373;28;20044;-80
2022/11/21 02:23:00;;;;;;;30.33;21.65;;;0.60;99.90;;;;;;5073393;28;20087;-78
2022/11/21 02:25:29;;;;;;;31.33;21.30;;;0.60;99.90;;;;;;5067293;28;20067;-78
2022/11/21 02:27:58;;;;;;;32.53;22.33;;;0.60;99.90;;;;;;5087959;28;20523;-78
2022/11/21 02:30:26;;;;;;;32.25;21.58;;;0.60;99.90;;;;;;5083708;28;20060;-79
2022/11/21 02:32:52;;;;;;;32.05;21.67;;;0.50;99.90;;;;;;5081223;28;20084;-79
2022/11/21 02:35:18;;;;;;;31.25;21.60;;;0.40;99.90;;;;;;5083469;28;20113;-79
2022/11/21 02:37:56;;;;;;;29.67;20.67;;;0.40;99.90;;;;;;5079447;28;20132;-80
2022/11/21 02:40:26;;;;;;;30.73;20.77;;;0.40;99.90;;;;;;5082322;28;20496;-83
2022/11/21 02:43:13;;;;;;;30.15;21.15;;;0.40;99.90;;;;;;5071074;28;20048;-79
2022/11/21 02:45:41;;;;;;;34.15;22.92;;;0.30;99.90;;;;;;5084795;28;20052;-80
2022/11/21 02:48:07;;;;;;;31.95;21.23;;;0.30;99.90;;;;;;5084129;28;20044;-80
2022/11/21 02:50:35;;;;;;;36.67;23.65;;;0.30;99.90;;;;;;5080825;28;20090;-80
2022/11/21 02:53:02;;;;;;;31.38;21.17;;;0.20;99.90;;;;;;5082173;28;20052;-80
2022/11/21 02:55:28;;;;;;;30.40;20.40;;;0.20;99.90;;;;;;5084092;28;20051;-81
2022/11/21 02:57:54;;;;;;;27.48;19.80;;;0.50;99.90;;;;;;5095252;28;20109;-80
2022/11/21 03:00:20;;;;;;;28.95;19.85;;;0.10;99.90;;;;;;5078253;28;20518;-81
2022/11/21 03:02:47;;;;;;;27.50;19.20;;;0.20;99.90;;;;;;5081259;28;20043;-80
2022/11/21 03:05:15;;;;;;;28.10;19.48;;;0.20;99.90;;;;;;5069079;28;20074;-82
2022/11/21 03:07:41;;;;;;;27.95;18.88;;;0.30;99.90;;;;;;5081632;28;20492;-80
2022/11/21 03:10:08;;;;;;;26.85;18.88;;;0.10;99.90;;;;;;5078093;28;20094;-84
2022/11/21 03:12:38;;;;;;;26.35;19.20;;;0.20;99.90;;;;;;5084597;28;20563;-81
2022/11/21 03:15:06;;;;;;;32.65;21.60;;;0.10;99.90;;;;;;5080975;28;20506;-80
2022/11/21 03:17:31;;;;;;;31.85;21.25;;;0.40;99.90;;;;;;5086509;28;20109;-80
2022/11/21 03:19:57;;;;;;;30.52;20.52;;;0.10;99.90;;;;;;5084549;28;20040;-81
2022/11/21 03:22:23;;;;;;;26.80;18.67;;;0.20;99.90;;;;;;5084862;28;20076;-83
2022/11/21 03:24:49;;;;;;;29.55;20.67;;;0.00;99.90;;;;;;5085060;28;20040;-82
2022/11/21 03:27:14;;;;;;;28.60;19.77;;;0.00;99.90;;;;;;5090200;28;20086;-81
2022/11/21 03:29:40;;;;;;;28.13;19.33;;;1.00;99.90;;;;;;5086635;28;20382;-82
2022/11/21 03:32:06;;;;;;;26.38;19.13;;;0.00;99.90;;;;;;5081246;28;20078;-82
2022/11/21 03:34:32;;;;;;;28.42;18.95;;;0.20;99.90;;;;;;5087978;28;20488;-81
2022/11/21 03:36:57;;;;;;;27.13;19.20;;;0.00;99.90;;;;;;5091183;28;20078;-81
2022/11/21 03:39:23;;;;;;;29.65;20.10;;;0.00;99.90;;;;;;5053992;28;20048;-82
2022/11/21 03:41:49;;;;;;;28.17;19.48;;;0.90;99.90;;;;;;5068085;28;20044;-81
2022/11/21 03:44:15;;;;;;;28.00;19.27;;;0.00;99.90;;;;;;5082561;28;20051;-81
2022/11/21 03:46:44;;;;;;;27.10;18.63;;;-0.10;99.90;;;;;;5080737;28;20200;-82
2022/11/21 03:49:10;;;;;;;27.35;19.13;;;-0.10;99.90;;;;;;5092820;28;20395;-82
2022/11/21 03:51:36;;;;;;;27.83;18.88;;;-0.10;99.90;;;;;;5087298;28;20043;-82
2022/11/21 03:54:03;;;;;;;25.73;18.25;;;0.10;99.90;;;;;;5088540;28;20051;-82
2022/11/21 03:56:29;;;;;;;26.30;18.40;;;-0.10;99.90;;;;;;5063908;28;20102;-81
2022/11/21 03:58:54;;;;;;;28.85;19.92;;;-0.10;99.90;;;;;;5080137;28;20086;-81
2022/11/21 04:01:21;;;;;;;37.90;23.67;;;-0.10;99.90;;;;;;5069121;28;20488;-84
2022/11/21 04:03:47;;;;;;;35.20;23.20;;;-0.20;99.90;;;;;;5079831;28;20123;-82
2022/11/21 04:06:15;;;;;;;30.67;20.48;;;-0.30;99.90;;;;;;5083101;28;20400;-82
2022/11/21 04:08:41;;;;;;;28.67;19.80;;;-0.30;99.90;;;;;;5083406;28;20373;-81
2022/11/21 04:11:07;;;;;;;28.67;19.52;;;-0.40;99.90;;;;;;5066298;28;20032;-82
2022/11/21 04:13:32;;;;;;;27.25;18.95;;;0.30;99.90;;;;;;5067855;28;20400;-83
2022/11/21 04:15:58;;;;;;;30.48;20.52;;;-0.10;99.90;;;;;;5065768;28;20056;-81
2022/11/21 04:18:24;;;;;;;27.02;18.38;;;-0.30;99.90;;;;;;5078872;28;20080;-83
2022/11/21 04:21:05;;;;;;;28.42;19.15;;;-0.40;99.90;;;;;;5068766;28;20043;-82
2022/11/21 04:23:31;;;;;;;29.40;19.90;;;-0.40;99.90;;;;;;5080489;28;20123;-82
2022/11/21 04:25:57;;;;;;;30.50;20.48;;;-0.40;99.90;;;;;;5077752;28;20073;-82
2022/11/21 04:28:22;;;;;;;28.15;19.30;;;-0.40;99.90;;;;;;5087366;28;20067;-83
2022/11/21 04:30:48;;;;;;;28.25;19.08;;;-0.40;99.90;;;;;;5084126;28;20095;-81
2022/11/21 04:33:15;;;;;;;27.77;19.13;;;-0.40;99.90;;;;;;5085975;28;20129;-83
2022/11/21 04:35:45;;;;;;;29.55;19.23;;;-0.40;99.90;;;;;;5083470;28;20044;-82
2022/11/21 04:38:12;;;;;;;30.65;20.67;;;0.50;99.90;;;;;;5070632;28;20152;-86
2022/11/21 04:40:38;;;;;;;26.45;17.95;;;-0.50;99.90;;;;;;5090208;28;20047;-81
2022/11/21 04:43:04;;;;;;;28.70;19.10;;;-0.50;99.90;;;;;;5083765;28;20052;-81
2022/11/21 04:45:31;;;;;;;28.00;19.23;;;-0.50;99.90;;;;;;5079382;28;20041;-81
2022/11/21 04:47:57;;;;;;;29.40;20.05;;;-0.50;99.90;;;;;;5080917;28;20059;-81
2022/11/21 04:50:23;;;;;;;29.27;19.73;;;0.10;99.90;;;;;;5080669;28;20048;-86
2022/11/21 04:52:53;;;;;;;28.38;19.55;;;0.40;99.90;;;;;;5080643;28;20040;-81
2022/11/21 04:55:20;;;;;;;34.10;22.17;;;-0.50;99.90;;;;;;5082912;28;20111;-81
2022/11/21 04:57:46;;;;;;;36.40;22.60;;;-0.50;99.90;;;;;;5081466;28;20098;-81
2022/11/21 05:00:14;;;;;;;33.80;22.73;;;-0.20;99.90;;;;;;5080944;28;20093;-82
2022/11/21 05:02:39;;;;;;;35.83;23.35;;;-0.60;99.90;;;;;;5074930;28;20056;-82
2022/11/21 05:05:05;;;;;;;36.50;24.10;;;-0.70;99.90;;;;;;5079076;28;20310;-87
2022/11/21 05:07:31;;;;;;;34.30;22.92;;;-0.70;99.90;;;;;;5079329;28;20072;-82
2022/11/21 05:09:57;;;;;;;30.90;20.60;;;-0.80;99.90;;;;;;5079352;28;20133;-82
2022/11/21 05:15:08;;;;;;;33.42;21.48;;;-0.80;99.90;;;;;;5082935;28;20090;-82
2022/11/21 05:17:33;;;;;;;36.50;23.83;;;-0.80;99.90;;;;;;5061557;28;20498;-81
2022/11/21 05:19:59;;;;;;;33.75;22.80;;;-0.80;99.90;;;;;;5089939;28;20131;-81
2022/11/21 05:22:25;;;;;;;30.67;20.48;;;-0.20;99.90;;;;;;5075259;28;20044;-82
2022/11/21 05:24:51;;;;;;;33.53;22.00;;;0.00;99.90;;;;;;5074505;28;20048;-84
2022/11/21 05:27:17;;;;;;;29.75;20.30;;;-0.90;99.90;;;;;;5062415;28;20150;-83
2022/11/21 05:29:42;;;;;;;32.45;21.00;;;-1.00;99.90;;;;;;5073711;28;20208;-82
2022/11/21 05:32:08;;;;;;;30.10;20.95;;;-1.00;99.90;;;;;;5084671;28;20048;-83
2022/11/21 05:34:34;;;;;;;28.80;19.65;;;-0.20;99.90;;;;;;5062025;28;20044;-82
2022/11/21 05:36:59;;;;;;;31.17;20.08;;;-1.00;99.90;;;;;;5066860;28;20487;-83
2022/11/21 05:39:26;;;;;;;30.23;19.70;;;-1.10;99.90;;;;;;5067607;28;20040;-82
2022/11/21 05:41:52;;;;;;;29.48;19.42;;;-1.10;99.90;;;;;;5081094;28;20070;-81
2022/11/21 05:44:17;;;;;;;29.35;19.50;;;-1.10;99.90;;;;;;5086175;28;20097;-82
2022/11/21 05:46:44;;;;;;;28.55;19.58;;;-1.00;99.90;;;;;;5082250;28;20048;-82
2022/11/21 05:49:10;;;;;;;30.10;20.23;;;-1.00;99.90;;;;;;5079779;28;20076;-83
2022/11/21 05:51:35;;;;;;;39.88;24.80;;;-1.00;99.90;;;;;;5070513;28;20132;-82
2022/11/21 05:54:01;;;;;;;31.30;20.73;;;-0.90;99.90;;;;;;5075318;28;20080;-82
2022/11/21 05:56:27;;;;;;;31.25;19.98;;;-1.00;99.90;;;;;;5079911;28;20071;-82
2022/11/21 05:58:57;;;;;;;28.70;19.45;;;-1.00;99.90;;;;;;5077059;28;20038;-83
2022/11/21 06:04:13;;;;;;;29.42;19.42;;;-1.00;99.90;;;;;;5053123;28;20052;-83
2022/11/21 06:06:38;;;;;;;28.05;19.40;;;-1.00;99.90;;;;;;5087286;28;20467;-83
2022/11/21 06:09:04;;;;;;;29.83;19.98;;;-0.40;99.90;;;;;;5077285;28;20048;-83
2022/11/21 06:11:30;;;;;;;27.50;18.45;;;-0.80;99.90;;;;;;5082130;28;20048;-82
2022/11/21 06:13:55;;;;;;;28.83;19.95;;;-1.00;99.90;;;;;;5061901;28;20115;-83
2022/11/21 06:16:21;;;;;;;29.98;20.10;;;-1.00;99.90;;;;;;5087272;28;20167;-84
2022/11/21 06:18:51;;;;;;;31.90;21.77;;;-1.00;99.90;;;;;;5072142;28;20081;-84
2022/11/21 06:21:22;;;;;;;36.58;23.75;;;-1.00;99.90;;;;;;5073221;28;20472;-84
2022/11/21 06:23:51;;;;;;;38.58;24.35;;;-1.10;99.90;;;;;;5081853;28;20059;-84
2022/11/21 06:26:18;;;;;;;39.67;25.58;;;-0.30;99.90;;;;;;5071338;28;20113;-83
2022/11/21 06:28:45;;;;;;;43.30;27.10;;;-1.20;99.90;;;;;;5076999;28;20075;-83
2022/11/21 06:31:13;;;;;;;32.10;22.05;;;-1.30;99.90;;;;;;5076603;28;20279;-84
2022/11/21 06:33:40;;;;;;;36.88;23.80;;;-1.20;99.90;;;;;;5076297;28;20080;-83
2022/11/21 06:36:08;;;;;;;34.50;22.05;;;-1.30;99.90;;;;;;5078545;28;20063;-84
2022/11/21 06:38:34;;;;;;;40.60;25.20;;;-1.30;99.90;;;;;;5079712;28;20048;-86
2022/11/21 06:41:14;;;;;;;35.95;23.58;;;-1.30;99.90;;;;;;5076051;28;20056;-83
2022/11/21 06:43:40;;;;;;;39.65;24.85;;;-1.30;99.90;;;;;;5078568;28;20048;-84
2022/11/21 06:46:06;;;;;;;39.25;24.83;;;-1.30;99.90;;;;;;5081316;28;20048;-83
2022/11/21 06:48:34;;;;;;;36.05;24.27;;;-1.30;99.90;;;;;;5083389;28;20095;-83
2022/11/21 06:51:09;;;;;;;39.30;25.08;;;-1.30;99.90;;;;;;5076995;28;20056;-83
2022/11/21 06:53:35;;;;;;;37.60;24.50;;;-1.00;99.90;;;;;;5061836;28;20059;-90
2022/11/21 06:56:01;;;;;;;39.97;24.75;;;-1.20;99.90;;;;;;5081511;28;20127;-82
2022/11/21 06:58:28;;;;;;;39.20;23.42;;;-0.80;99.90;;;;;;5064020;28;20480;-83
2022/11/21 07:00:54;;;;;;;35.22;22.35;;;-1.20;99.90;;;;;;5079045;28;20603;-84
2022/11/21 07:03:21;;;;;;;43.25;26.50;;;-1.20;99.90;;;;;;5077921;28;20044;-87
2022/11/21 07:05:47;;;;;;;50.33;30.02;;;-1.10;99.90;;;;;;5065739;28;20048;-83
2022/11/21 07:08:12;;;;;;;61.97;37.15;;;-1.20;99.90;;;;;;5082126;28;20123;-84
2022/11/21 07:10:38;;;;;;;55.75;33.15;;;-1.30;99.90;;;;;;5068704;28;20361;-83
2022/11/21 07:16:03;;;;;;;47.05;29.83;;;-1.40;99.90;;;;;;5076001;28;20044;-89
2022/11/21 07:18:29;;;;;;;46.05;30.17;;;-1.50;99.90;;;;;;5079980;28;20051;-83
2022/11/21 07:21:03;;;;;;;46.65;29.17;;;-1.50;99.90;;;;;;5083192;28;20040;-84
2022/11/21 07:23:30;;;;;;;47.38;28.90;;;-1.50;99.90;;;;;;5077808;28;20091;-84
2022/11/21 07:26:02;;;;;;;43.75;27.92;;;-1.50;99.90;;;;;;5078224;28;20127;-83
2022/11/21 07:28:29;;;;;;;44.45;28.60;;;-1.00;99.90;;;;;;5080891;28;20140;-85
2022/11/21 07:30:56;;;;;;;48.80;30.77;;;-1.40;99.90;;;;;;5086644;28;20051;-84
2022/11/21 07:33:22;;;;;;;44.35;28.65;;;-1.40;99.90;;;;;;5084477;28;20052;-83
2022/11/21 07:35:47;;;;;;;46.20;28.45;;;-1.40;99.90;;;;;;5085584;28;20495;-83
2022/11/21 07:38:13;;;;;;;45.33;28.25;;;-1.30;99.90;;;;;;5063487;28;20049;-85
2022/11/21 07:40:38;;;;;;;39.35;26.13;;;-1.30;99.90;;;;;;5069866;28;20051;-83
2022/11/21 07:43:05;;;;;;;41.53;27.10;;;-0.70;99.90;;;;;;5085323;28;20047;-82
2022/11/21 07:45:32;;;;;;;44.45;28.27;;;-1.40;99.90;;;;;;5076253;28;20060;-82
2022/11/21 07:48:02;;;;;;;45.78;28.73;;;-1.30;99.90;;;;;;5082773;28;20110;-84
2022/11/21 07:50:28;;;;;;;43.20;27.70;;;-1.30;99.90;;;;;;5077450;28;20044;-83
2022/11/21 07:53:03;;;;;;;44.33;28.33;;;-1.20;99.90;;;;;;5068499;28;20058;-83
2022/11/21 07:55:29;;;;;;;41.55;26.95;;;-1.10;99.90;;;;;;5081124;28;20047;-84
2022/11/21 07:58:05;;;;;;;43.05;27.90;;;-1.10;99.90;;;;;;5065945;28;20141;-82
2022/11/21 08:00:33;;;;;;;43.17;27.40;;;-1.00;99.90;;;;;;5084953;28;20040;-82
2022/11/21 08:02:59;;;;;;;40.70;24.98;;;-1.10;99.90;;;;;;5081127;28;20078;-81
2022/11/21 08:05:25;;;;;;;40.47;26.00;;;-1.00;99.90;;;;;;5083785;28;20404;-80
2022/11/21 08:07:50;;;;;;;41.72;26.38;;;-0.90;99.90;;;;;;5082092;28;20153;-81
2022/11/21 08:10:17;;;;;;;46.58;28.95;;;-0.80;99.90;;;;;;5085738;28;20197;-81
2022/11/21 08:12:46;;;;;;;39.78;26.13;;;-0.70;99.90;;;;;;5080731;28;20056;-81
2022/11/21 08:15:12;;;;;;;43.97;27.42;;;-0.70;99.90;;;;;;5078259;28;20559;-82
2022/11/21 08:17:38;;;;;;;43.58;27.10;;;0.30;99.90;;;;;;5076201;28;20084;-83
2022/11/21 08:20:06;;;;;;;40.95;25.42;;;-0.50;99.90;;;;;;5083483;28;20080;-82
2022/11/21 08:22:31;;;;;;;44.05;27.48;;;-0.50;99.90;;;;;;5057510;28;20056;-80
2022/11/21 08:24:57;;;;;;;44.67;27.65;;;0.20;99.90;;;;;;5080191;28;20058;-81
2022/11/21 08:27:23;;;;;;;46.35;29.48;;;-0.40;99.90;;;;;;5088249;28;20159;-81
2022/11/21 08:29:49;;;;;;;44.45;28.13;;;-0.20;99.90;;;;;;5092874;28;20134;-81
2022/11/21 08:32:15;;;;;;;44.20;28.08;;;-0.10;99.90;;;;;;5091310;28;20051;-81
2022/11/21 08:34:41;;;;;;;46.30;28.48;;;0.00;99.90;;;;;;5092176;28;20158;-82
2022/11/21 08:37:07;;;;;;;44.40;28.58;;;0.40;99.90;;;;;;5091215;28;20109;-80
2022/11/21 08:39:33;;;;;;;41.75;27.48;;;0.20;99.90;;;;;;5087939;28;20044;-79
2022/11/21 08:42:01;;;;;;;42.00;27.67;;;0.30;99.90;;;;;;5091682;28;20078;-83
2022/11/21 08:44:31;;;;;;;39.15;22.10;;;0.40;99.90;;;;;;5089169;28;20040;-78
2022/11/21 08:46:57;;;;;;;41.20;26.55;;;0.50;99.90;;;;;;5073424;28;20044;-80
2022/11/21 08:49:23;;;;;;;43.00;26.75;;;0.70;99.90;;;;;;5092610;28;20124;-82
2022/11/21 08:51:49;;;;;;;39.30;25.52;;;0.50;99.90;;;;;;5091117;28;20460;-78
2022/11/21 08:54:23;;;;;;;37.97;24.52;;;0.60;99.90;;;;;;5092481;28;20048;-84
2022/11/21 08:56:49;;;;;;;39.50;25.88;;;0.60;99.90;;;;;;5087123;28;20040;-79
2022/11/21 08:59:15;;;;;;;39.92;26.25;;;0.60;99.90;;;;;;5092250;28;20514;-79
2022/11/21 09:01:41;;;;;;;35.30;21.67;;;0.70;99.90;;;;;;5091407;28;20052;-80
2022/11/21 09:04:07;;;;;;;35.13;24.02;;;0.70;99.90;;;;;;5091103;28;20094;-79
2022/11/21 09:06:33;;;;;;;37.38;25.42;;;0.80;99.90;;;;;;5089383;28;20527;-80
2022/11/21 09:08:59;;;;;;;38.30;24.50;;;0.80;99.90;;;;;;5087648;28;20044;-82
2022/11/21 09:11:25;;;;;;;37.15;25.20;;;1.00;99.90;;;;;;5090881;28;20048;-81
2022/11/21 09:19:22;;;;;;;38.85;25.70;;;1.00;99.90;;;;;;5086904;28;20048;-81
2022/11/21 09:21:49;;;;;;;37.60;26.25;;;1.10;99.90;;;;;;5091200;28;20048;-82
2022/11/21 09:24:16;;;;;;;37.38;25.50;;;1.30;99.90;;;;;;5089920;28;20136;-80
2022/11/21 09:26:42;;;;;;;35.28;22.58;;;1.40;99.90;;;;;;5088490;28;20465;-81
2022/11/21 09:29:13;;;;;;;34.10;23.60;;;1.50;99.90;;;;;;5073183;28;20051;-81
2022/11/21 09:31:40;;;;;;;35.67;23.42;;;1.50;99.90;;;;;;5092948;28;20055;-80
2022/11/21 09:34:06;;;;;;;35.47;23.20;;;1.50;99.90;;;;;;5107848;28;20056;-80
2022/11/21 09:36:31;;;;;;;39.30;25.27;;;1.40;99.90;;;;;;5072546;28;20097;-81
2022/11/21 09:38:57;;;;;;;32.72;21.20;;;1.40;99.90;;;;;;5090792;28;20040;-79
2022/11/21 09:41:50;;;;;;;32.83;19.92;;;2.00;99.90;;;;;;5087335;28;20123;-80
2022/11/21 09:44:41;;;;;;;35.40;23.60;;;1.30;99.90;;;;;;5091293;28;20054;-79
2022/11/21 09:47:25;;;;;;;40.00;26.77;;;1.30;99.90;;;;;;5105051;28;20089;-78
2022/11/21 09:49:59;;;;;;;41.47;28.58;;;1.20;99.90;;;;;;5087108;28;20109;-81
2022/11/21 09:52:39;;;;;;;37.65;25.58;;;1.20;99.90;;;;;;5106802;28;20178;-80
2022/11/21 09:55:15;;;;;;;36.63;24.35;;;1.30;99.90;;;;;;5092274;28;20083;-82
2022/11/21 09:57:43;;;;;;;34.25;22.25;;;1.30;99.90;;;;;;5103535;28;20048;-78
2022/11/21 10:00:18;;;;;;;35.38;23.35;;;1.80;99.90;;;;;;5075801;28;20059;-78
2022/11/21 10:02:44;;;;;;;36.42;24.17;;;1.40;99.90;;;;;;5093441;28;20532;-78
2022/11/21 10:05:14;;;;;;;35.65;24.25;;;1.40;99.90;;;;;;5093295;28;20086;-80
2022/11/21 10:07:41;;;;;;;39.03;25.52;;;1.40;99.90;;;;;;5090846;28;20046;-80
2022/11/21 10:10:52;;;;;;;37.88;25.55;;;1.40;99.90;;;;;;5084742;28;20505;-83
2022/11/21 10:13:56;;;;;;;34.53;24.13;;;1.40;99.90;;;;;;5081705;28;20055;-79
2022/11/21 10:16:45;;;;;;;39.38;24.50;;;1.40;99.90;;;;;;5090144;28;20056;-79
2022/11/21 10:19:32;;;;;;;37.47;23.38;;;1.70;99.90;;;;;;5070575;28;20044;-79
2022/11/21 10:22:19;;;;;;;38.47;24.33;;;1.40;99.90;;;;;;5088138;28;20395;-82
2022/11/21 10:24:58;;;;;;;41.33;26.73;;;1.40;99.90;;;;;;5074926;28;20066;-78
2022/11/21 10:27:45;;;;;;;44.40;28.73;;;1.40;99.90;;;;;;5084830;28;20051;-80
2022/11/21 10:30:18;;;;;;;37.58;23.80;;;1.40;99.90;;;;;;5090852;28;20083;-83
2022/11/21 10:32:48;;;;;;;38.28;25.33;;;1.40;99.90;;;;;;5092007;28;20067;-79
2022/11/21 10:35:40;;;;;;;39.92;24.40;;;1.60;99.90;;;;;;5093221;28;20412;-78
2022/11/21 10:38:18;;;;;;;41.78;25.63;;;1.50;99.90;;;;;;5089892;28;20356;-78
2022/11/21 10:40:49;;;;;;;41.63;25.55;;;1.50;99.90;;;;;;5110575;28;20043;-79
2022/11/21 10:46:24;;;;;;;37.30;24.33;;;1.60;99.90;;;;;;5089331;28;20067;-78
2022/11/21 10:48:59;;;;;;;38.42;24.65;;;1.60;99.90;;;;;;5093462;28;20047;-78
2022/11/21 10:51:34;;;;;;;37.35;23.50;;;1.70;99.90;;;;;;5093910;28;20063;-77
2022/11/21 10:56:53;;;;;;;;;;;1.80;99.90;;;;;;5093415;28;20105;-76
2022/11/21 10:59:28;;;;;;;36.30;22.23;;;1.90;99.90;;;;;;5079911;28;19920;-78
2022/11/21 11:01:56;;;;;;;38.83;24.65;;;1.90;99.90;;;;;;5089998;28;20082;-76
2022/11/21 11:04:22;;;;;;;36.75;24.05;;;2.10;99.90;;;;;;5093811;28;20043;-77
2022/11/21 11:06:48;;;;;;;36.40;22.33;;;2.10;99.90;;;;;;5089408;28;20048;-79
2022/11/21 11:09:25;;;;;;;35.25;21.88;;;2.10;99.90;;;;;;5094046;28;20043;-79
2022/11/21 11:11:51;;;;;;;33.45;21.67;;;2.20;99.90;;;;;;5095749;28;20051;-79
2022/11/21 11:14:31;;;;;;;30.55;17.77;;;2.30;99.90;;;;;;5095553;28;20070;-77
2022/11/21 11:16:57;;;;;;;29.67;18.88;;;2.40;99.90;;;;;;5086935;28;20059;-78
2022/11/21 11:19:27;;;;;;;29.33;18.83;;;2.60;99.90;;;;;;5091866;28;20483;-79
2022/11/21 11:21:55;;;;;;;25.60;16.75;;;2.70;99.90;;;;;;5096919;28;20040;-77
2022/11/21 11:24:25;;;;;;;26.75;16.80;;;2.90;99.90;;;;;;5094096;28;20051;-77
2022/11/21 11:26:59;;;;;;;24.40;16.20;;;3.40;99.90;;;;;;5094925;28;20107;-77
2022/11/21 11:29:33;;;;;;;24.95;14.82;;;2.80;99.90;;;;;;5091555;28;20043;-76
2022/11/21 11:32:00;;;;;;;24.33;15.05;;;2.90;99.90;;;;;;5094515;28;20055;-76
2022/11/21 11:34:37;;;;;;;23.23;14.43;;;3.00;99.90;;;;;;5091512;28;20082;-81
2022/11/21 11:37:18;;;;;;;22.17;14.57;;;3.10;99.90;;;;;;5087531;28;20055;-79
2022/11/21 11:40:17;;;;;;;22.13;15.00;;;3.10;99.90;;;;;;5096503;28;20503;-77
2022/11/21 11:48:56;;;;;;;22.13;14.85;;;3.20;99.90;;;;;;5110621;28;20392;-76
2022/11/21 11:51:33;;;;;;;21.00;13.48;;;3.30;99.90;;;;;;5092590;28;20083;-76
2022/11/21 11:54:16;;;;;;;19.30;11.73;;;3.40;99.90;;;;;;5086249;28;20059;-77
2022/11/21 11:56:44;;;;;;;19.08;11.55;;;3.30;99.90;;;;;;5087678;28;20123;-78
2022/11/21 11:59:14;;;;;;;20.85;13.13;;;3.30;99.90;;;;;;5092827;28;20123;-77
2022/11/21 12:01:58;;;;;;;22.60;13.60;;;3.30;99.90;;;;;;5092705;28;20083;-76
2022/11/21 12:04:28;;;;;;;22.08;14.00;;;3.30;99.90;;;;;;5092217;28;20055;-77
2022/11/21 12:07:11;;;;;;;24.83;14.88;;;3.30;99.90;;;;;;5077232;28;20036;-78
2022/11/21 12:09:46;;;;;;;24.30;14.90;;;3.30;99.90;;;;;;5092843;28;20050;-79
2022/11/21 12:12:38;;;;;;;25.88;15.85;;;3.30;99.90;;;;;;5108830;28;20075;-78
2022/11/21 12:17:54;;;;;;;23.05;14.48;;;3.30;99.90;;;;;;5090745;28;20355;-77
2022/11/21 12:20:33;;;;;;;23.10;14.40;;;3.40;99.90;;;;;;5094359;28;20040;-75
2022/11/21 12:22:59;;;;;;;20.95;13.02;;;3.40;99.90;;;;;;5091489;28;20055;-78
2022/11/21 12:25:30;;;;;;;22.52;14.85;;;3.70;99.90;;;;;;5090094;28;20059;-78
2022/11/21 12:27:57;;;;;;;19.17;12.27;;;3.60;99.90;;;;;;5095032;28;20091;-78
2022/11/21 12:30:22;;;;;;;17.70;10.63;;;3.50;99.90;;;;;;5093381;28;20051;-78
2022/11/21 12:33:00;;;;;;;18.67;10.13;;;3.60;99.90;;;;;;5111834;28;20077;-78
2022/11/21 12:35:41;;;;;;;17.88;9.68;;;3.60;99.90;;;;;;5090524;28;20093;-75
2022/11/21 12:38:21;;;;;;;16.85;9.93;;;3.70;99.90;;;;;;5088670;28;20043;-76
2022/11/21 12:44:01;;;;;;;19.88;12.15;;;3.70;99.90;;;;;;5109886;28;20070;-77
2022/11/21 12:47:05;;;;;;;20.42;12.02;;;3.70;99.90;;;;;;5089441;28;20104;-77
2022/11/21 12:55:38;;;;;;;15.90;8.10;;;3.70;99.90;;;;;;5090835;28;20067;-74
2022/11/21 12:58:25;;;;;;;22.92;13.13;;;3.80;99.90;;;;;;5090649;28;20325;-78
2022/11/21 13:01:00;;;;;;;26.95;17.48;;;3.80;99.90;;;;;;5087189;28;20047;-76
2022/11/21 13:03:34;;;;;;;28.85;19.83;;;3.80;99.90;;;;;;5092992;28;20097;-76
2022/11/21 13:06:02;;;;;;;27.35;18.33;;;3.80;99.90;;;;;;5089777;28;20044;-77
2022/11/21 13:08:33;;;;;;;29.02;19.55;;;3.80;99.90;;;;;;5108057;28;20055;-78
2022/11/21 13:14:36;;;;;;;28.70;20.40;;;3.80;99.90;;;;;;5046673;28;20063;-79
2022/11/21 13:17:06;;;;;;;33.42;21.98;;;3.80;99.90;;;;;;5088265;28;20062;-77
2022/11/21 13:19:46;;;;;;;30.25;21.27;;;3.80;99.90;;;;;;5090109;28;20043;-76
2022/11/21 13:22:34;;;;;;;29.58;18.95;;;3.80;99.90;;;;;;5105974;28;20083;-79
2022/11/21 13:25:08;;;;;;;31.35;18.38;;;3.80;99.90;;;;;;5089132;28;20060;-76
2022/11/21 13:27:39;;;;;;;31.58;21.00;;;3.90;99.90;;;;;;5093106;28;20104;-78